sensor_id;sensor_type;location;lat;lon;timestamp;pressure;altitude;pressure_sealevel;temperature
60731;BMP280;46580;52.114;11.674;2022-12-07T00:01:07;100908.63;;;2.11
60731;BMP280;46580;52.114;11.674;2022-12-07T00:03:33;100907.94;;;2.07
60731;BMP280;46580;52.114;11.674;2022-12-07T00:06:00;100901.41;;;2.02
60731;BMP280;46580;52.114;11.674;2022-12-07T00:08:26;100887.94;;;2.00
60731;BMP280;46580;52.114;11.674;2022-12-07T00:10:51;100885.25;;;2.03
60731;BMP280;46580;52.114;11.674;2022-12-07T00:13:17;100886.22;;;2.01
60731;BMP280;46580;52.114;11.674;2022-12-07T00:15:42;100877.84;;;1.99
60731;BMP280;46580;52.114;11.674;2022-12-07T00:18:08;100877.13;;;1.95
60731;BMP280;46580;52.114;11.674;2022-12-07T00:20:33;100874.47;;;1.98
60731;BMP280;46580;52.114;11.674;2022-12-07T00:22:59;100883.00;;;1.96
60731;BMP280;46580;52.114;11.674;2022-12-07T00:25:25;100876.31;;;1.95
60731;BMP280;46580;52.114;11.674;2022-12-07T00:27:52;100872.06;;;1.95
60731;BMP280;46580;52.114;11.674;2022-12-07T00:30:18;100863.44;;;1.99
60731;BMP280;46580;52.114;11.674;2022-12-07T00:32:44;100861.59;;;2.03
60731;BMP280;46580;52.114;11.674;2022-12-07T00:35:10;100860.22;;;2.15
60731;BMP280;46580;52.114;11.674;2022-12-07T00:37:35;100860.88;;;2.20
60731;BMP280;46580;52.114;11.674;2022-12-07T00:40:00;100854.13;;;2.19
60731;BMP280;46580;52.114;11.674;2022-12-07T00:42:26;100849.16;;;2.16
60731;BMP280;46580;52.114;11.674;2022-12-07T00:44:51;100844.16;;;2.15
60731;BMP280;46580;52.114;11.674;2022-12-07T00:47:17;100841.50;;;2.18
60731;BMP280;46580;52.114;11.674;2022-12-07T00:49:42;100838.06;;;2.19
60731;BMP280;46580;52.114;11.674;2022-12-07T00:52:07;100833.19;;;2.14
60731;BMP280;46580;52.114;11.674;2022-12-07T00:54:33;100835.59;;;2.17
60731;BMP280;46580;52.114;11.674;2022-12-07T00:56:58;100834.66;;;2.20
60731;BMP280;46580;52.114;11.674;2022-12-07T00:59:24;100829.31;;;2.25
60731;BMP280;46580;52.114;11.674;2022-12-07T01:01:49;100825.13;;;2.24
60731;BMP280;46580;52.114;11.674;2022-12-07T01:04:14;100817.66;;;2.22
60731;BMP280;46580;52.114;11.674;2022-12-07T01:06:40;100821.13;;;2.19
60731;BMP280;46580;52.114;11.674;2022-12-07T01:09:05;100817.00;;;2.17
60731;BMP280;46580;52.114;11.674;2022-12-07T01:11:31;100822.06;;;2.17
60731;BMP280;46580;52.114;11.674;2022-12-07T01:13:59;100825.63;;;2.13
60731;BMP280;46580;52.114;11.674;2022-12-07T01:16:27;100823.03;;;2.14
60731;BMP280;46580;52.114;11.674;2022-12-07T01:18:55;100828.94;;;2.15
60731;BMP280;46580;52.114;11.674;2022-12-07T01:21:27;100822.31;;;2.11
60731;BMP280;46580;52.114;11.674;2022-12-07T01:23:53;100828.38;;;2.08
60731;BMP280;46580;52.114;11.674;2022-12-07T01:26:21;100823.19;;;2.10
60731;BMP280;46580;52.114;11.674;2022-12-07T01:28:46;100824.22;;;2.06
60731;BMP280;46580;52.114;11.674;2022-12-07T01:31:15;100820.81;;;2.07
60731;BMP280;46580;52.114;11.674;2022-12-07T01:33:42;100828.13;;;2.14
60731;BMP280;46580;52.114;11.674;2022-12-07T01:38:38;100817.25;;;2.11
60731;BMP280;46580;52.114;11.674;2022-12-07T01:41:04;100806.84;;;2.17
60731;BMP280;46580;52.114;11.674;2022-12-07T01:43:31;100806.34;;;2.28
60731;BMP280;46580;52.114;11.674;2022-12-07T01:45:57;100805.44;;;2.29
60731;BMP280;46580;52.114;11.674;2022-12-07T01:48:42;100803.94;;;2.25
60731;BMP280;46580;52.114;11.674;2022-12-07T01:51:11;100801.31;;;2.27
60731;BMP280;46580;52.114;11.674;2022-12-07T01:53:40;100799.47;;;2.30
60731;BMP280;46580;52.114;11.674;2022-12-07T01:56:08;100789.25;;;2.32
60731;BMP280;46580;52.114;11.674;2022-12-07T01:58:36;100785.56;;;2.39
60731;BMP280;46580;52.114;11.674;2022-12-07T02:01:02;100787.91;;;2.43
60731;BMP280;46580;52.114;11.674;2022-12-07T02:03:37;100784.38;;;2.47
60731;BMP280;46580;52.114;11.674;2022-12-07T02:06:04;100771.59;;;2.48
60731;BMP280;46580;52.114;11.674;2022-12-07T02:08:31;100761.34;;;2.50
60731;BMP280;46580;52.114;11.674;2022-12-07T02:10:57;100759.59;;;2.52
60731;BMP280;46580;52.114;11.674;2022-12-07T02:13:25;100752.69;;;2.55
60731;BMP280;46580;52.114;11.674;2022-12-07T02:15:55;100754.38;;;2.55
60731;BMP280;46580;52.114;11.674;2022-12-07T02:18:46;100747.50;;;2.57
60731;BMP280;46580;52.114;11.674;2022-12-07T02:21:44;100748.16;;;2.61
60731;BMP280;46580;52.114;11.674;2022-12-07T02:30:17;100740.31;;;2.66
60731;BMP280;46580;52.114;11.674;2022-12-07T02:35:30;100741.09;;;2.68
60731;BMP280;46580;52.114;11.674;2022-12-07T02:43:15;100726.50;;;2.71
60731;BMP280;46580;52.114;11.674;2022-12-07T02:45:43;100714.63;;;2.72
60731;BMP280;46580;52.114;11.674;2022-12-07T02:48:12;100715.34;;;2.75
60731;BMP280;46580;52.114;11.674;2022-12-07T02:50:38;100722.13;;;2.75
60731;BMP280;46580;52.114;11.674;2022-12-07T02:53:04;100717.09;;;2.73
60731;BMP280;46580;52.114;11.674;2022-12-07T02:55:35;100717.16;;;2.72
60731;BMP280;46580;52.114;11.674;2022-12-07T02:58:06;100715.34;;;2.75
60731;BMP280;46580;52.114;11.674;2022-12-07T03:00:48;100717.09;;;2.73
60731;BMP280;46580;52.114;11.674;2022-12-07T03:03:15;100705.22;;;2.74
60731;BMP280;46580;52.114;11.674;2022-12-07T03:08:32;100702.47;;;2.78
60731;BMP280;46580;52.114;11.674;2022-12-07T03:11:32;100689.03;;;2.76
60731;BMP280;46580;52.114;11.674;2022-12-07T03:17:10;100697.38;;;2.78
60731;BMP280;46580;52.114;11.674;2022-12-07T03:19:34;100691.34;;;2.80
60731;BMP280;46580;52.114;11.674;2022-12-07T03:22:03;100689.94;;;2.75
60731;BMP280;46580;52.114;11.674;2022-12-07T03:24:45;100689.84;;;2.77
60731;BMP280;46580;52.114;11.674;2022-12-07T03:27:16;100683.66;;;2.82
60731;BMP280;46580;52.114;11.674;2022-12-07T03:29:49;100682.03;;;2.81
60731;BMP280;46580;52.114;11.674;2022-12-07T03:32:25;100674.88;;;2.89
60731;BMP280;46580;52.114;11.674;2022-12-07T03:35:04;100671.16;;;2.96
60731;BMP280;46580;52.114;11.674;2022-12-07T03:37:37;100670.56;;;3.07
60731;BMP280;46580;52.114;11.674;2022-12-07T03:42:55;100664.91;;;3.19
60731;BMP280;46580;52.114;11.674;2022-12-07T03:45:25;100661.47;;;3.20
60731;BMP280;46580;52.114;11.674;2022-12-07T03:50:44;100657.44;;;3.33
60731;BMP280;46580;52.114;11.674;2022-12-07T03:53:18;100652.97;;;3.37
60731;BMP280;46580;52.114;11.674;2022-12-07T03:55:46;100645.31;;;3.37
60731;BMP280;46580;52.114;11.674;2022-12-07T03:58:16;100641.88;;;3.38
60731;BMP280;46580;52.114;11.674;2022-12-07T04:00:43;100639.97;;;3.43
60731;BMP280;46580;52.114;11.674;2022-12-07T04:03:09;100645.47;;;3.51
60731;BMP280;46580;52.114;11.674;2022-12-07T04:05:34;100652.09;;;3.55
60731;BMP280;46580;52.114;11.674;2022-12-07T04:08:00;100655.47;;;3.55
60731;BMP280;46580;52.114;11.674;2022-12-07T04:10:25;100650.13;;;3.60
60731;BMP280;46580;52.114;11.674;2022-12-07T04:12:51;100649.81;;;3.66
60731;BMP280;46580;52.114;11.674;2022-12-07T04:15:16;100650.59;;;3.68
60731;BMP280;46580;52.114;11.674;2022-12-07T04:17:41;100648.78;;;3.70
60731;BMP280;46580;52.114;11.674;2022-12-07T04:20:07;100636.78;;;3.71
60731;BMP280;46580;52.114;11.674;2022-12-07T04:22:33;100640.78;;;3.77
60731;BMP280;46580;52.114;11.674;2022-12-07T04:24:58;100645.13;;;3.75
60731;BMP280;46580;52.114;11.674;2022-12-07T04:27:24;100636.78;;;3.71
60731;BMP280;46580;52.114;11.674;2022-12-07T04:29:49;100643.69;;;3.70
60731;BMP280;46580;52.114;11.674;2022-12-07T04:32:14;100634.25;;;3.71
60731;BMP280;46580;52.114;11.674;2022-12-07T04:34:40;100635.00;;;3.73
60731;BMP280;46580;52.114;11.674;2022-12-07T04:37:05;100636.03;;;3.86
60731;BMP280;46580;52.114;11.674;2022-12-07T04:39:31;100624.38;;;3.82
60731;BMP280;46580;52.114;11.674;2022-12-07T04:41:58;100623.31;;;3.86
60731;BMP280;46580;52.114;11.674;2022-12-07T04:44:24;100615.09;;;3.81
60731;BMP280;46580;52.114;11.674;2022-12-07T04:46:51;100620.09;;;3.83
60731;BMP280;46580;52.114;11.674;2022-12-07T04:49:17;100612.38;;;3.84
60731;BMP280;46580;52.114;11.674;2022-12-07T04:51:43;100622.47;;;3.86
60731;BMP280;46580;52.114;11.674;2022-12-07T04:54:09;100612.28;;;3.86
60731;BMP280;46580;52.114;11.674;2022-12-07T04:56:35;100618.13;;;3.88
60731;BMP280;46580;52.114;11.674;2022-12-07T04:59:02;100621.34;;;3.91
60731;BMP280;46580;52.114;11.674;2022-12-07T05:01:28;100616.09;;;3.94
60731;BMP280;46580;52.114;11.674;2022-12-07T05:03:53;100608.59;;;3.91
60731;BMP280;46580;52.114;11.674;2022-12-07T05:06:19;100595.97;;;3.89
60731;BMP280;46580;52.114;11.674;2022-12-07T05:08:45;100601.91;;;3.90
60731;BMP280;46580;52.114;11.674;2022-12-07T05:11:10;100610.50;;;3.88
60731;BMP280;46580;52.114;11.674;2022-12-07T05:13:54;100609.75;;;3.86
60731;BMP280;46580;52.114;11.674;2022-12-07T05:16:20;100611.91;;;3.93
60731;BMP280;46580;52.114;11.674;2022-12-07T05:18:45;100615.34;;;3.92
60731;BMP280;46580;52.114;11.674;2022-12-07T05:21:10;100605.16;;;3.92
60731;BMP280;46580;52.114;11.674;2022-12-07T05:23:36;100608.59;;;3.91
60731;BMP280;46580;52.114;11.674;2022-12-07T05:26:01;100599.25;;;3.91
60731;BMP280;46580;52.114;11.674;2022-12-07T05:28:26;100602.72;;;3.90
60731;BMP280;46580;52.114;11.674;2022-12-07T05:30:52;100609.44;;;3.91
60731;BMP280;46580;52.114;11.674;2022-12-07T05:33:17;100604.28;;;3.93
60731;BMP280;46580;52.114;11.674;2022-12-07T05:35:42;100606.69;;;3.96
60731;BMP280;46580;52.114;11.674;2022-12-07T05:38:08;100606.75;;;3.94
60731;BMP280;46580;52.114;11.674;2022-12-07T05:40:33;100602.47;;;3.95
60731;BMP280;46580;52.114;11.674;2022-12-07T05:42:58;100614.31;;;3.96
60731;BMP280;46580;52.114;11.674;2022-12-07T05:45:24;100605.84;;;3.95
60731;BMP280;46580;52.114;11.674;2022-12-07T05:47:49;100618.34;;;4.00
60731;BMP280;46580;52.114;11.674;2022-12-07T05:50:15;100620.75;;;4.03
60731;BMP280;46580;52.114;11.674;2022-12-07T05:52:40;100613.94;;;4.03
60731;BMP280;46580;52.114;11.674;2022-12-07T05:55:06;100612.91;;;4.06
60731;BMP280;46580;52.114;11.674;2022-12-07T05:57:32;100609.34;;;4.09
60731;BMP280;46580;52.114;11.674;2022-12-07T05:59:57;100610.22;;;4.08
60731;BMP280;46580;52.114;11.674;2022-12-07T06:02:23;100614.50;;;4.08
60731;BMP280;46580;52.114;11.674;2022-12-07T06:04:48;100614.34;;;4.11
60731;BMP280;46580;52.114;11.674;2022-12-07T06:07:15;100604.16;;;4.11
60731;BMP280;46580;52.114;11.674;2022-12-07T06:09:41;100609.00;;;4.15
60731;BMP280;46580;52.114;11.674;2022-12-07T06:12:09;100603.03;;;4.16
60731;BMP280;46580;52.114;11.674;2022-12-07T06:14:54;100595.53;;;4.13
60731;BMP280;46580;52.114;11.674;2022-12-07T06:17:19;100599.66;;;4.16
60731;BMP280;46580;52.114;11.674;2022-12-07T06:19:44;100597.03;;;4.17
60731;BMP280;46580;52.114;11.674;2022-12-07T06:22:10;100603.91;;;4.15
60731;BMP280;46580;52.114;11.674;2022-12-07T06:24:37;100599.78;;;4.13
60731;BMP280;46580;52.114;11.674;2022-12-07T06:27:02;100605.56;;;4.16
60731;BMP280;46580;52.114;11.674;2022-12-07T06:29:28;100603.84;;;4.17
60731;BMP280;46580;52.114;11.674;2022-12-07T06:31:53;100595.28;;;4.18
60731;BMP280;46580;52.114;11.674;2022-12-07T06:34:22;100597.03;;;4.17
60731;BMP280;46580;52.114;11.674;2022-12-07T06:36:49;100594.56;;;4.16
60731;BMP280;46580;52.114;11.674;2022-12-07T06:39:18;100600.63;;;4.13
60731;BMP280;46580;52.114;11.674;2022-12-07T06:41:44;100602.91;;;4.18
60731;BMP280;46580;52.114;11.674;2022-12-07T06:44:11;100607.88;;;4.21
60731;BMP280;46580;52.114;11.674;2022-12-07T06:46:36;100607.88;;;4.21
60731;BMP280;46580;52.114;11.674;2022-12-07T06:49:03;100606.16;;;4.21
60731;BMP280;46580;52.114;11.674;2022-12-07T06:51:28;100612.72;;;4.25
60731;BMP280;46580;52.114;11.674;2022-12-07T06:53:55;100605.75;;;4.28
60731;BMP280;46580;52.114;11.674;2022-12-07T06:56:20;100604.09;;;4.27
60731;BMP280;46580;52.114;11.674;2022-12-07T06:58:46;100613.31;;;4.30
60731;BMP280;46580;52.114;11.674;2022-12-07T07:01:13;100615.09;;;4.28
60731;BMP280;46580;52.114;11.674;2022-12-07T07:03:39;100613.47;;;4.27
60731;BMP280;46580;52.114;11.674;2022-12-07T07:06:06;100609.19;;;4.27
60731;BMP280;46580;52.114;11.674;2022-12-07T07:08:33;100613.47;;;4.27
60731;BMP280;46580;52.114;11.674;2022-12-07T07:10:58;100613.38;;;4.28
60731;BMP280;46580;52.114;11.674;2022-12-07T07:13:24;100620.06;;;4.31
60731;BMP280;46580;52.114;11.674;2022-12-07T07:15:49;100625.88;;;4.33
60731;BMP280;46580;52.114;11.674;2022-12-07T07:18:14;100617.50;;;4.31
60731;BMP280;46580;52.114;11.674;2022-12-07T07:20:40;100629.31;;;4.32
60731;BMP280;46580;52.114;11.674;2022-12-07T07:23:05;100625.72;;;4.36
60731;BMP280;46580;52.114;11.674;2022-12-07T07:25:31;100630.06;;;4.34
60731;BMP280;46580;52.114;11.674;2022-12-07T07:27:57;100636.13;;;4.31
60731;BMP280;46580;52.114;11.674;2022-12-07T07:30:22;100633.59;;;4.31
60731;BMP280;46580;52.114;11.674;2022-12-07T07:32:48;100633.69;;;4.30
60731;BMP280;46580;52.114;11.674;2022-12-07T07:35:13;100639.63;;;4.30
60731;BMP280;46580;52.114;11.674;2022-12-07T07:37:39;100637.13;;;4.29
60731;BMP280;46580;52.114;11.674;2022-12-07T07:40:05;100643.13;;;4.28
60731;BMP280;46580;52.114;11.674;2022-12-07T07:42:31;100643.19;;;4.26
60731;BMP280;46580;52.114;11.674;2022-12-07T07:44:56;100650.91;;;4.25
60731;BMP280;46580;52.114;11.674;2022-12-07T07:47:22;100649.13;;;4.27
60731;BMP280;46580;52.114;11.674;2022-12-07T07:49:49;100648.22;;;4.28
60731;BMP280;46580;52.114;11.674;2022-12-07T07:52:17;100650.03;;;4.26
60731;BMP280;46580;52.114;11.674;2022-12-07T07:54:42;100644.94;;;4.26
60731;BMP280;46580;52.114;11.674;2022-12-07T07:57:07;100644.03;;;4.27
60731;BMP280;46580;52.114;11.674;2022-12-07T07:59:33;100649.94;;;4.27
60731;BMP280;46580;52.114;11.674;2022-12-07T08:01:58;100652.44;;;4.29
60731;BMP280;46580;52.114;11.674;2022-12-07T08:04:24;100650.78;;;4.28
60731;BMP280;46580;52.114;11.674;2022-12-07T08:06:49;100654.06;;;4.30
60731;BMP280;46580;52.114;11.674;2022-12-07T08:09:15;100652.34;;;4.30
60731;BMP280;46580;52.114;11.674;2022-12-07T08:11:40;100658.16;;;4.32
60731;BMP280;46580;52.114;11.674;2022-12-07T08:14:05;100661.53;;;4.33
60731;BMP280;46580;52.114;11.674;2022-12-07T08:16:31;100659.81;;;4.33
60731;BMP280;46580;52.114;11.674;2022-12-07T08:18:56;100659.81;;;4.33
60731;BMP280;46580;52.114;11.674;2022-12-07T08:21:21;100655.56;;;4.34
60731;BMP280;46580;52.114;11.674;2022-12-07T08:23:47;100656.28;;;4.36
60731;BMP280;46580;52.114;11.674;2022-12-07T08:26:14;100659.75;;;4.35
60731;BMP280;46580;52.114;11.674;2022-12-07T08:28:40;100654.56;;;4.36
60731;BMP280;46580;52.114;11.674;2022-12-07T08:31:09;100651.97;;;4.38
60731;BMP280;46580;52.114;11.674;2022-12-07T08:33:35;100655.22;;;4.40
60731;BMP280;46580;52.114;11.674;2022-12-07T08:36:06;100661.00;;;4.43
60731;BMP280;46580;52.114;11.674;2022-12-07T08:38:31;100652.47;;;4.44
60731;BMP280;46580;52.114;11.674;2022-12-07T08:40:58;100656.53;;;4.46
60731;BMP280;46580;52.114;11.674;2022-12-07T08:43:24;100653.28;;;4.45
60731;BMP280;46580;52.114;11.674;2022-12-07T08:48:29;100654.75;;;4.48
60731;BMP280;46580;52.114;11.674;2022-12-07T08:50:55;100654.69;;;4.50
60731;BMP280;46580;52.114;11.674;2022-12-07T08:53:21;100650.47;;;4.49
60731;BMP280;46580;52.114;11.674;2022-12-07T08:55:47;100656.41;;;4.49
60731;BMP280;46580;52.114;11.674;2022-12-07T08:58:13;100658.19;;;4.47
60731;BMP280;46580;52.114;11.674;2022-12-07T09:00:38;100657.44;;;4.45
60731;BMP280;46580;52.114;11.674;2022-12-07T09:03:04;100661.81;;;4.44
60731;BMP280;46580;52.114;11.674;2022-12-07T09:05:29;100660.16;;;4.43
60731;BMP280;46580;52.114;11.674;2022-12-07T09:07:57;100663.28;;;4.47
60731;BMP280;46580;52.114;11.674;2022-12-07T09:10:25;100669.47;;;4.44
60731;BMP280;46580;52.114;11.674;2022-12-07T09:12:51;100671.19;;;4.43
60731;BMP280;46580;52.114;11.674;2022-12-07T09:15:16;100670.38;;;4.43
60731;BMP280;46580;52.114;11.674;2022-12-07T09:17:42;100677.13;;;4.44
60731;BMP280;46580;52.114;11.674;2022-12-07T09:20:07;100670.38;;;4.43
60731;BMP280;46580;52.114;11.674;2022-12-07T09:22:33;100681.31;;;4.45
60731;BMP280;46580;52.114;11.674;2022-12-07T09:24:59;100677.75;;;4.47
60731;BMP280;46580;52.114;11.674;2022-12-07T09:27:26;100686.22;;;4.47
60731;BMP280;46580;52.114;11.674;2022-12-07T09:29:51;100684.50;;;4.48
60731;BMP280;46580;52.114;11.674;2022-12-07T09:32:17;100687.13;;;4.46
60731;BMP280;46580;52.114;11.674;2022-12-07T09:34:42;100675.28;;;4.45
60731;BMP280;46580;52.114;11.674;2022-12-07T09:37:08;100681.06;;;4.49
60731;BMP280;46580;52.114;11.674;2022-12-07T09:39:34;100676.78;;;4.49
60731;BMP280;46580;52.114;11.674;2022-12-07T09:42:03;100674.16;;;4.51
60731;BMP280;46580;52.114;11.674;2022-12-07T09:44:29;100683.53;;;4.50
60731;BMP280;46580;52.114;11.674;2022-12-07T09:46:55;100669.91;;;4.51
60731;BMP280;46580;52.114;11.674;2022-12-07T09:49:23;100675.00;;;4.51
60731;BMP280;46580;52.114;11.674;2022-12-07T09:52:26;100668.16;;;4.52
60731;BMP280;46580;52.114;11.674;2022-12-07T09:54:53;100663.03;;;4.52
60731;BMP280;46580;52.114;11.674;2022-12-07T09:57:30;100674.06;;;4.52
60731;BMP280;46580;52.114;11.674;2022-12-07T10:00:18;100667.34;;;4.51
60731;BMP280;46580;52.114;11.674;2022-12-07T10:02:50;100680.88;;;4.52
60731;BMP280;46580;52.114;11.674;2022-12-07T10:05:20;100672.50;;;4.50
60731;BMP280;46580;52.114;11.674;2022-12-07T10:07:47;100676.63;;;4.52
60731;BMP280;46580;52.114;11.674;2022-12-07T10:10:15;100673.00;;;4.56
60731;BMP280;46580;52.114;11.674;2022-12-07T10:12:56;100676.28;;;4.58
60731;BMP280;46580;52.114;11.674;2022-12-07T10:15:22;100660.84;;;4.61
60731;BMP280;46580;52.114;11.674;2022-12-07T10:17:49;100662.56;;;4.61
60731;BMP280;46580;52.114;11.674;2022-12-07T10:20:25;100669.25;;;4.63
60731;BMP280;46580;52.114;11.674;2022-12-07T10:23:05;100667.41;;;4.65
60731;BMP280;46580;52.114;11.674;2022-12-07T10:25:35;100668.91;;;4.69
60731;BMP280;46580;52.114;11.674;2022-12-07T10:28:12;100664.47;;;4.72
60731;BMP280;46580;52.114;11.674;2022-12-07T10:33:36;100662.41;;;4.79
60731;BMP280;46580;52.114;11.674;2022-12-07T10:36:24;100665.56;;;4.83
60731;BMP280;46580;52.114;11.674;2022-12-07T10:39:04;100655.03;;;4.89
60731;BMP280;46580;52.114;11.674;2022-12-07T10:41:35;100665.78;;;4.94
60731;BMP280;46580;52.114;11.674;2022-12-07T10:44:01;100657.22;;;4.95
60731;BMP280;46580;52.114;11.674;2022-12-07T10:51:52;100654.41;;;5.00
60731;BMP280;46580;52.114;11.674;2022-12-07T10:54:44;100656.91;;;5.01
60731;BMP280;46580;52.114;11.674;2022-12-07T10:57:26;100658.63;;;5.00
60731;BMP280;46580;52.114;11.674;2022-12-07T11:05:02;100642.75;;;5.11
60731;BMP280;46580;52.114;11.674;2022-12-07T11:12:50;100648.53;;;5.28
60731;BMP280;46580;52.114;11.674;2022-12-07T11:29:06;100636.50;;;5.45
60731;BMP280;46580;52.114;11.674;2022-12-07T11:37:13;100635.75;;;5.43
60731;BMP280;46580;52.114;11.674;2022-12-07T11:39:58;100625.28;;;5.47
60731;BMP280;46580;52.114;11.674;2022-12-07T11:42:26;100629.09;;;5.40
60731;BMP280;46580;52.114;11.674;2022-12-07T11:44:56;100627.19;;;5.44
60731;BMP280;46580;52.114;11.674;2022-12-07T11:47:32;100630.47;;;5.46
60731;BMP280;46580;52.114;11.674;2022-12-07T11:52:32;100629.56;;;5.47
60731;BMP280;46580;52.114;11.674;2022-12-07T11:55:19;100623.75;;;5.45
60731;BMP280;46580;52.114;11.674;2022-12-07T11:57:51;100622.72;;;5.47
60731;BMP280;46580;52.114;11.674;2022-12-07T12:00:18;100613.25;;;5.49
60731;BMP280;46580;52.114;11.674;2022-12-07T12:05:25;100624.16;;;5.38
60731;BMP280;46580;52.114;11.674;2022-12-07T12:21:27;100620.13;;;5.34
60731;BMP280;46580;52.114;11.674;2022-12-07T12:24:12;100619.47;;;5.45
60731;BMP280;46580;52.114;11.674;2022-12-07T12:26:56;100612.97;;;5.54
60731;BMP280;46580;52.114;11.674;2022-12-07T12:29:32;100610.81;;;5.61
60731;BMP280;46580;52.114;11.674;2022-12-07T12:32:12;100612.13;;;5.68
60731;BMP280;46580;52.114;11.674;2022-12-07T12:34:42;100607.03;;;5.68
60731;BMP280;46580;52.114;11.674;2022-12-07T12:43:38;100604.94;;;5.46
60731;BMP280;46580;52.114;11.674;2022-12-07T12:49:37;100598.72;;;5.36
60731;BMP280;46580;52.114;11.674;2022-12-07T12:55:24;100595.97;;;5.25
60731;BMP280;46580;52.114;11.674;2022-12-07T13:03:35;100592.72;;;5.37
60731;BMP280;46580;52.114;11.674;2022-12-07T13:06:17;100601.56;;;5.32
60731;BMP280;46580;52.114;11.674;2022-12-07T13:09:15;100597.44;;;5.29
60731;BMP280;46580;52.114;11.674;2022-12-07T13:11:44;100602.19;;;5.35
60731;BMP280;46580;52.114;11.674;2022-12-07T13:25:02;100577.81;;;5.45
60731;BMP280;46580;52.114;11.674;2022-12-07T13:27:28;100579.78;;;5.40
60731;BMP280;46580;52.114;11.674;2022-12-07T13:29:56;100575.50;;;5.40
60731;BMP280;46580;52.114;11.674;2022-12-07T13:32:26;100572.38;;;5.36
60731;BMP280;46580;52.114;11.674;2022-12-07T13:34:51;100586.25;;;5.32
60731;BMP280;46580;52.114;11.674;2022-12-07T13:44:55;100569.34;;;5.16
60731;BMP280;46580;52.114;11.674;2022-12-07T13:47:44;100568.03;;;5.09
60731;BMP280;46580;52.114;11.674;2022-12-07T13:50:27;100565.69;;;4.91
60731;BMP280;46580;52.114;11.674;2022-12-07T13:52:58;100564.63;;;4.80
60731;BMP280;46580;52.114;11.674;2022-12-07T13:55:23;100558.41;;;4.70
60731;BMP280;46580;52.114;11.674;2022-12-07T13:57:51;100556.19;;;4.64
60731;BMP280;46580;52.114;11.674;2022-12-07T14:00:24;100558.81;;;4.63
60731;BMP280;46580;52.114;11.674;2022-12-07T14:03:00;100562.34;;;4.60
60731;BMP280;46580;52.114;11.674;2022-12-07T14:05:31;100560.81;;;4.58
60731;BMP280;46580;52.114;11.674;2022-12-07T14:07:59;100557.25;;;4.60
60731;BMP280;46580;52.114;11.674;2022-12-07T14:12:59;100569.25;;;4.58
60731;BMP280;46580;52.114;11.674;2022-12-07T14:15:30;100575.84;;;4.62
60731;BMP280;46580;52.114;11.674;2022-12-07T14:17:57;100582.72;;;4.60
60731;BMP280;46580;52.114;11.674;2022-12-07T14:23:02;100585.84;;;4.65
60731;BMP280;46580;52.114;11.674;2022-12-07T14:25:48;100580.75;;;4.65
60731;BMP280;46580;52.114;11.674;2022-12-07T14:28:34;100585.63;;;4.69
60731;BMP280;46580;52.114;11.674;2022-12-07T14:31:00;100577.97;;;4.69
60731;BMP280;46580;52.114;11.674;2022-12-07T14:33:26;100582.25;;;4.69
60731;BMP280;46580;52.114;11.674;2022-12-07T14:35:52;100580.25;;;4.74
60731;BMP280;46580;52.114;11.674;2022-12-07T14:38:24;100573.50;;;4.73
60731;BMP280;46580;52.114;11.674;2022-12-07T14:40:50;100578.63;;;4.73
60731;BMP280;46580;52.114;11.674;2022-12-07T14:43:17;100585.44;;;4.72
60731;BMP280;46580;52.114;11.674;2022-12-07T14:45:43;100584.72;;;4.70
60731;BMP280;46580;52.114;11.674;2022-12-07T14:48:14;100580.59;;;4.68
60731;BMP280;46580;52.114;11.674;2022-12-07T14:50:49;100572.22;;;4.66
60731;BMP280;46580;52.114;11.674;2022-12-07T14:53:18;100580.75;;;4.65
60731;BMP280;46580;52.114;11.674;2022-12-07T14:55:47;100579.03;;;4.65
60731;BMP280;46580;52.114;11.674;2022-12-07T14:58:16;100585.06;;;4.64
60731;BMP280;46580;52.114;11.674;2022-12-07T15:00:42;100582.41;;;4.66
60731;BMP280;46580;52.114;11.674;2022-12-07T15:03:08;100584.13;;;4.65
60731;BMP280;46580;52.114;11.674;2022-12-07T15:05:34;100588.50;;;4.63
60731;BMP280;46580;52.114;11.674;2022-12-07T15:08:00;100589.41;;;4.63
60731;BMP280;46580;52.114;11.674;2022-12-07T15:10:28;100586.09;;;4.61
60731;BMP280;46580;52.114;11.674;2022-12-07T15:12:59;100591.94;;;4.63
60731;BMP280;46580;52.114;11.674;2022-12-07T15:15:44;100589.47;;;4.61
60731;BMP280;46580;52.114;11.674;2022-12-07T15:18:10;100591.28;;;4.59
60731;BMP280;46580;52.114;11.674;2022-12-07T15:20:35;100585.28;;;4.60
60731;BMP280;46580;52.114;11.674;2022-12-07T15:23:01;100583.56;;;4.61
60731;BMP280;46580;52.114;11.674;2022-12-07T15:25:26;100588.72;;;4.59
60731;BMP280;46580;52.114;11.674;2022-12-07T15:27:51;100585.47;;;4.57
60731;BMP280;46580;52.114;11.674;2022-12-07T15:30:17;100593.13;;;4.57
60731;BMP280;46580;52.114;11.674;2022-12-07T15:32:43;100577.00;;;4.57
60731;BMP280;46580;52.114;11.674;2022-12-07T15:35:09;100578.72;;;4.56
60731;BMP280;46580;52.114;11.674;2022-12-07T15:37:34;100569.44;;;4.55
60731;BMP280;46580;52.114;11.674;2022-12-07T15:40:00;100571.22;;;4.53
60731;BMP280;46580;52.114;11.674;2022-12-07T15:42:25;100579.53;;;4.57
60731;BMP280;46580;52.114;11.674;2022-12-07T15:44:51;100576.00;;;4.59
60731;BMP280;46580;52.114;11.674;2022-12-07T15:47:29;100568.13;;;4.63
60731;BMP280;46580;52.114;11.674;2022-12-07T15:49:54;100579.22;;;4.63
60731;BMP280;46580;52.114;11.674;2022-12-07T15:52:20;100566.81;;;4.57
60731;BMP280;46580;52.114;11.674;2022-12-07T15:54:45;100562.69;;;4.54
60731;BMP280;46580;52.114;11.674;2022-12-07T15:57:12;100572.13;;;4.52
60731;BMP280;46580;52.114;11.674;2022-12-07T15:59:38;100573.78;;;4.53
60731;BMP280;46580;52.114;11.674;2022-12-07T16:02:03;100578.16;;;4.51
60731;BMP280;46580;52.114;11.674;2022-12-07T16:04:29;100578.31;;;4.48
60731;BMP280;46580;52.114;11.674;2022-12-07T16:06:56;100579.41;;;4.45
60731;BMP280;46580;52.114;11.674;2022-12-07T16:09:21;100580.38;;;4.42
60731;BMP280;46580;52.114;11.674;2022-12-07T16:11:48;100578.78;;;4.40
60731;BMP280;46580;52.114;11.674;2022-12-07T16:14:15;100577.47;;;4.33